sensor_id;sensor_type;location;lat;lon;timestamp;pressure;altitude;pressure_sealevel;temperature;humidity
80405;BME280;69733;48.744;9.176;2024-02-21T00:01:35;97798.78;;;4.57;74.10
80405;BME280;69733;48.744;9.176;2024-02-21T00:04:00;97778.53;;;4.58;74.07
80405;BME280;69733;48.744;9.176;2024-02-21T00:06:25;97791.69;;;4.58;74.22
80405;BME280;69733;48.744;9.176;2024-02-21T00:08:51;97785.44;;;4.59;73.79
80405;BME280;69733;48.744;9.176;2024-02-21T00:11:16;97784.63;;;4.58;74.02
80405;BME280;69733;48.744;9.176;2024-02-21T00:13:41;97789.06;;;4.58;74.17
80405;BME280;69733;48.744;9.176;2024-02-21T00:16:07;97787.25;;;4.58;74.33
80405;BME280;69733;48.744;9.176;2024-02-21T00:18:32;97785.44;;;4.59;74.41
80405;BME280;69733;48.744;9.176;2024-02-21T00:20:58;97782.81;;;4.59;74.30
80405;BME280;69733;48.744;9.176;2024-02-21T00:23:23;97777.53;;;4.59;74.79
80405;BME280;69733;48.744;9.176;2024-02-21T00:25:48;97771.28;;;4.60;74.77
80405;BME280;69733;48.744;9.176;2024-02-21T00:28:13;97771.13;;;4.61;74.72
80405;BME280;69733;48.744;9.176;2024-02-21T00:30:39;97756.13;;;4.62;74.74
80405;BME280;69733;48.744;9.176;2024-02-21T00:33:04;97749.19;;;4.61;74.86
80405;BME280;69733;48.744;9.176;2024-02-21T00:35:30;97752.50;;;4.63;74.96
80405;BME280;69733;48.744;9.176;2024-02-21T00:37:55;97743.78;;;4.62;74.90
80405;BME280;69733;48.744;9.176;2024-02-21T00:40:22;97752.50;;;4.63;74.83
80405;BME280;69733;48.744;9.176;2024-02-21T00:42:48;97752.31;;;4.64;74.52
80405;BME280;69733;48.744;9.176;2024-02-21T00:45:13;97755.63;;;4.66;74.99
80405;BME280;69733;48.744;9.176;2024-02-21T00:47:38;97743.28;;;4.67;74.93
80405;BME280;69733;48.744;9.176;2024-02-21T00:50:04;97746.56;;;4.69;74.97
80405;BME280;69733;48.744;9.176;2024-02-21T00:52:29;97742.94;;;4.70;75.01
80405;BME280;69733;48.744;9.176;2024-02-21T00:54:55;97739.31;;;4.71;75.24
80405;BME280;69733;48.744;9.176;2024-02-21T00:57:20;97740.94;;;4.72;74.79
80405;BME280;69733;48.744;9.176;2024-02-21T00:59:45;97738.16;;;4.73;75.00
80405;BME280;69733;48.744;9.176;2024-02-21T01:02:11;97724.78;;;4.75;75.00
80405;BME280;69733;48.744;9.176;2024-02-21T01:04:36;97728.25;;;4.75;75.36
80405;BME280;69733;48.744;9.176;2024-02-21T01:07:01;97729.91;;;4.76;75.44
80405;BME280;69733;48.744;9.176;2024-02-21T01:09:27;97724.63;;;4.76;75.20
80405;BME280;69733;48.744;9.176;2024-02-21T01:11:52;97726.44;;;4.76;75.63
80405;BME280;69733;48.744;9.176;2024-02-21T01:14:18;97718.19;;;4.79;75.31
80405;BME280;69733;48.744;9.176;2024-02-21T01:16:43;97707.00;;;4.77;75.43
80405;BME280;69733;48.744;9.176;2024-02-21T01:19:08;97701.72;;;4.77;75.52
80405;BME280;69733;48.744;9.176;2024-02-21T01:21:34;97700.91;;;4.76;75.87
80405;BME280;69733;48.744;9.176;2024-02-21T01:23:59;97689.38;;;4.77;75.58
80405;BME280;69733;48.744;9.176;2024-02-21T01:26:24;97685.91;;;4.77;75.61
80405;BME280;69733;48.744;9.176;2024-02-21T01:28:50;97692.00;;;4.77;76.09
80405;BME280;69733;48.744;9.176;2024-02-21T01:31:15;97681.28;;;4.79;76.21
80405;BME280;69733;48.744;9.176;2024-02-21T01:33:41;97672.53;;;4.78;76.17
80405;BME280;69733;48.744;9.176;2024-02-21T01:36:06;97677.03;;;4.78;76.22
80405;BME280;69733;48.744;9.176;2024-02-21T01:38:32;97671.75;;;4.78;76.34
80405;BME280;69733;48.744;9.176;2024-02-21T01:40:58;97671.56;;;4.79;76.17
80405;BME280;69733;48.744;9.176;2024-02-21T01:43:23;97667.28;;;4.78;76.37
80405;BME280;69733;48.744;9.176;2024-02-21T01:45:50;97663.84;;;4.78;76.00
80405;BME280;69733;48.744;9.176;2024-02-21T01:48:19;97648.03;;;4.78;76.43
80405;BME280;69733;48.744;9.176;2024-02-21T01:50:45;97648.03;;;4.78;76.62
80405;BME280;69733;48.744;9.176;2024-02-21T01:53:12;97647.00;;;4.79;76.20
80405;BME280;69733;48.744;9.176;2024-02-21T01:55:44;97637.47;;;4.78;76.18
80405;BME280;69733;48.744;9.176;2024-02-21T01:58:09;97646.19;;;4.78;76.21
80405;BME280;69733;48.744;9.176;2024-02-21T02:00:36;97642.75;;;4.78;76.34
80405;BME280;69733;48.744;9.176;2024-02-21T02:03:03;97630.38;;;4.78;76.26
80405;BME280;69733;48.744;9.176;2024-02-21T02:05:29;97622.66;;;4.77;76.78
80405;BME280;69733;48.744;9.176;2024-02-21T02:07:54;97613.91;;;4.76;76.40
80405;BME280;69733;48.744;9.176;2024-02-21T02:10:20;97623.28;;;4.79;76.55
80405;BME280;69733;48.744;9.176;2024-02-21T02:12:45;97609.94;;;4.80;76.80
80405;BME280;69733;48.744;9.176;2024-02-21T02:15:10;97618.69;;;4.81;76.68
80405;BME280;69733;48.744;9.176;2024-02-21T02:17:36;97623.59;;;4.84;76.23
80405;BME280;69733;48.744;9.176;2024-02-21T02:20:01;97611.25;;;4.84;77.29
80405;BME280;69733;48.744;9.176;2024-02-21T02:22:28;97608.41;;;4.86;76.81
80405;BME280;69733;48.744;9.176;2024-02-21T02:24:54;97594.88;;;4.89;76.62
80405;BME280;69733;48.744;9.176;2024-02-21T02:27:20;97601.00;;;4.89;76.70
80405;BME280;69733;48.744;9.176;2024-02-21T02:29:45;97594.88;;;4.89;76.92
80405;BME280;69733;48.744;9.176;2024-02-21T02:32:11;97592.91;;;4.91;76.71
80405;BME280;69733;48.744;9.176;2024-02-21T02:34:36;97587.66;;;4.91;76.58
80405;BME280;69733;48.744;9.176;2024-02-21T02:37:01;97586.47;;;4.93;77.06
80405;BME280;69733;48.744;9.176;2024-02-21T02:39:27;97581.19;;;4.93;76.87
80405;BME280;69733;48.744;9.176;2024-02-21T02:41:52;97582.03;;;4.94;77.05
80405;BME280;69733;48.744;9.176;2024-02-21T02:44:18;97578.41;;;4.95;77.02
80405;BME280;69733;48.744;9.176;2024-02-21T02:46:43;97565.84;;;4.97;77.02
80405;BME280;69733;48.744;9.176;2024-02-21T02:49:09;97574.41;;;4.99;77.07
80405;BME280;69733;48.744;9.176;2024-02-21T02:51:34;97567.31;;;4.99;77.13
80405;BME280;69733;48.744;9.176;2024-02-21T02:53:59;97570.59;;;5.01;77.12
80405;BME280;69733;48.744;9.176;2024-02-21T02:56:25;97565.13;;;5.03;76.99
80405;BME280;69733;48.744;9.176;2024-02-21T02:58:50;97562.34;;;5.05;76.88
80405;BME280;69733;48.744;9.176;2024-02-21T03:01:15;97557.91;;;5.05;77.27
80405;BME280;69733;48.744;9.176;2024-02-21T03:03:41;97541.09;;;5.06;77.25
80405;BME280;69733;48.744;9.176;2024-02-21T03:06:06;97526.88;;;5.07;76.99
80405;BME280;69733;48.744;9.176;2024-02-21T03:08:31;97523.25;;;5.08;77.16
80405;BME280;69733;48.744;9.176;2024-02-21T03:10:58;97529.72;;;5.06;77.41
80405;BME280;69733;48.744;9.176;2024-02-21T03:13:24;97526.25;;;5.05;77.81
80405;BME280;69733;48.744;9.176;2024-02-21T03:15:50;97523.78;;;5.03;77.52
80405;BME280;69733;48.744;9.176;2024-02-21T03:18:15;97522.94;;;5.03;77.86
80405;BME280;69733;48.744;9.176;2024-02-21T03:20:40;97532.69;;;5.03;77.88
80405;BME280;69733;48.744;9.176;2024-02-21T03:23:06;97532.03;;;5.00;77.43
80405;BME280;69733;48.744;9.176;2024-02-21T03:25:31;97541.59;;;5.01;77.95
80405;BME280;69733;48.744;9.176;2024-02-21T03:27:56;97549.31;;;5.03;78.07
80405;BME280;69733;48.744;9.176;2024-02-21T03:30:22;97535.16;;;5.04;77.98
80405;BME280;69733;48.744;9.176;2024-02-21T03:32:47;97544.72;;;5.05;77.70
80405;BME280;69733;48.744;9.176;2024-02-21T03:35:12;97541.09;;;5.06;77.63
80405;BME280;69733;48.744;9.176;2024-02-21T03:37:38;97527.91;;;5.06;78.22
80405;BME280;69733;48.744;9.176;2024-02-21T03:40:07;97519.31;;;5.04;78.37
80405;BME280;69733;48.744;9.176;2024-02-21T03:42:32;97517.88;;;5.01;78.41
80405;BME280;69733;48.744;9.176;2024-02-21T03:44:58;97511.13;;;4.99;78.10
80405;BME280;69733;48.744;9.176;2024-02-21T03:47:23;97502.56;;;4.97;78.06
80405;BME280;69733;48.744;9.176;2024-02-21T03:49:49;97504.56;;;4.95;78.10
80405;BME280;69733;48.744;9.176;2024-02-21T03:52:14;97510.81;;;4.94;78.60
80405;BME280;69733;48.744;9.176;2024-02-21T03:54:40;97519.72;;;4.93;78.47
80405;BME280;69733;48.744;9.176;2024-02-21T03:57:05;97514.66;;;4.91;78.69
80405;BME280;69733;48.744;9.176;2024-02-21T03:59:31;97513.97;;;4.89;78.58
80405;BME280;69733;48.744;9.176;2024-02-21T04:01:56;97504.25;;;4.90;78.33
80405;BME280;69733;48.744;9.176;2024-02-21T04:04:22;97507.25;;;4.87;78.51
80405;BME280;69733;48.744;9.176;2024-02-21T04:06:48;97506.41;;;4.86;78.42
80405;BME280;69733;48.744;9.176;2024-02-21T04:09:13;97500.31;;;4.86;78.94
80405;BME280;69733;48.744;9.176;2024-02-21T04:11:38;97492.41;;;4.86;78.81
80405;BME280;69733;48.744;9.176;2024-02-21T04:14:04;97492.59;;;4.84;78.98
80405;BME280;69733;48.744;9.176;2024-02-21T04:16:29;97488.31;;;4.83;78.78
80405;BME280;69733;48.744;9.176;2024-02-21T04:18:54;97484.22;;;4.81;79.11
80405;BME280;69733;48.744;9.176;2024-02-21T04:21:20;97477.81;;;4.75;79.15
80405;BME280;69733;48.744;9.176;2024-02-21T04:23:45;97467.81;;;4.71;79.33
80405;BME280;69733;48.744;9.176;2024-02-21T04:26:10;97462.25;;;4.66;79.44
80405;BME280;69733;48.744;9.176;2024-02-21T04:28:35;97449.78;;;4.60;79.59
80405;BME280;69733;48.744;9.176;2024-02-21T04:31:01;97456.56;;;4.54;79.24
80405;BME280;69733;48.744;9.176;2024-02-21T04:33:26;97473.69;;;4.50;79.37
80405;BME280;69733;48.744;9.176;2024-02-21T04:35:51;97477.69;;;4.46;79.46
80405;BME280;69733;48.744;9.176;2024-02-21T04:38:19;97465.88;;;4.42;79.42
80405;BME280;69733;48.744;9.176;2024-02-21T04:40:45;97455.47;;;4.40;79.87
80405;BME280;69733;48.744;9.176;2024-02-21T04:43:10;97457.47;;;4.38;79.85
80405;BME280;69733;48.744;9.176;2024-02-21T04:45:35;97458.63;;;4.36;79.47
80405;BME280;69733;48.744;9.176;2024-02-21T04:48:01;97460.63;;;4.34;79.38
80405;BME280;69733;48.744;9.176;2024-02-21T04:50:26;97458.00;;;4.34;79.32
80405;BME280;69733;48.744;9.176;2024-02-21T04:52:52;97456.19;;;4.34;79.58
80405;BME280;69733;48.744;9.176;2024-02-21T04:55:17;97458.00;;;4.34;79.58
80405;BME280;69733;48.744;9.176;2024-02-21T04:57:43;97457.16;;;4.33;79.48
80405;BME280;69733;48.744;9.176;2024-02-21T05:00:08;97452.41;;;4.29;79.82
80405;BME280;69733;48.744;9.176;2024-02-21T05:02:34;97453.09;;;4.23;79.68
80405;BME280;69733;48.744;9.176;2024-02-21T05:04:59;97469.41;;;4.18;79.72
80405;BME280;69733;48.744;9.176;2024-02-21T05:07:25;97473.41;;;4.14;79.63
80405;BME280;69733;48.744;9.176;2024-02-21T05:09:50;97473.91;;;4.10;79.87
80405;BME280;69733;48.744;9.176;2024-02-21T05:12:16;97469.34;;;4.04;79.68
80405;BME280;69733;48.744;9.176;2024-02-21T05:14:41;97475.94;;;3.99;79.93
80405;BME280;69733;48.744;9.176;2024-02-21T05:17:06;97483.50;;;3.94;80.29
80405;BME280;69733;48.744;9.176;2024-02-21T05:19:32;97479.56;;;3.90;80.47
80405;BME280;69733;48.744;9.176;2024-02-21T05:21:59;97475.47;;;3.88;80.36
80405;BME280;69733;48.744;9.176;2024-02-21T05:24:24;97465.44;;;3.83;80.15
80405;BME280;69733;48.744;9.176;2024-02-21T05:26:51;97460.72;;;3.79;80.01
80405;BME280;69733;48.744;9.176;2024-02-21T05:29:16;97445.44;;;3.74;80.44
80405;BME280;69733;48.744;9.176;2024-02-21T05:34:16;97425.84;;;3.69;80.00
80405;BME280;69733;48.744;9.176;2024-02-21T05:36:41;97427.84;;;3.67;80.41
80405;BME280;69733;48.744;9.176;2024-02-21T05:39:06;97423.75;;;3.64;80.43
80405;BME280;69733;48.744;9.176;2024-02-21T05:41:32;97425.56;;;3.64;80.50
80405;BME280;69733;48.744;9.176;2024-02-21T05:43:57;97430.00;;;3.63;79.89
80405;BME280;69733;48.744;9.176;2024-02-21T05:46:22;97418.66;;;3.63;79.98
80405;BME280;69733;48.744;9.176;2024-02-21T05:48:48;97416.84;;;3.63;80.29
80405;BME280;69733;48.744;9.176;2024-02-21T05:51:13;97408.31;;;3.61;80.11
80405;BME280;69733;48.744;9.176;2024-02-21T05:53:38;97413.56;;;3.61;80.01
80405;BME280;69733;48.744;9.176;2024-02-21T05:56:10;97403.22;;;3.60;80.21
80405;BME280;69733;48.744;9.176;2024-02-21T05:58:36;97404.19;;;3.59;80.20
80405;BME280;69733;48.744;9.176;2024-02-21T06:01:01;97405.34;;;3.56;79.92
80405;BME280;69733;48.744;9.176;2024-02-21T06:03:28;97402.88;;;3.55;79.64
80405;BME280;69733;48.744;9.176;2024-02-21T06:05:54;97414.41;;;3.54;79.89
80405;BME280;69733;48.744;9.176;2024-02-21T06:08:19;97408.66;;;3.50;79.76
80405;BME280;69733;48.744;9.176;2024-02-21T06:10:45;97407.19;;;3.47;79.92
80405;BME280;69733;48.744;9.176;2024-02-21T06:13:10;97409.16;;;3.45;80.06
80405;BME280;69733;48.744;9.176;2024-02-21T06:15:36;97413.13;;;3.41;80.01
80405;BME280;69733;48.744;9.176;2024-02-21T06:18:01;97405.41;;;3.40;80.47
80405;BME280;69733;48.744;9.176;2024-02-21T06:20:26;97399.34;;;3.39;80.17
80405;BME280;69733;48.744;9.176;2024-02-21T06:22:53;97400.47;;;3.37;80.28
80405;BME280;69733;48.744;9.176;2024-02-21T06:25:18;97409.38;;;3.36;79.97
80405;BME280;69733;48.744;9.176;2024-02-21T06:27:44;97404.25;;;3.34;80.22
80405;BME280;69733;48.744;9.176;2024-02-21T06:30:10;97403.63;;;3.32;80.10
80405;BME280;69733;48.744;9.176;2024-02-21T06:32:35;97407.06;;;3.33;79.90
80405;BME280;69733;48.744;9.176;2024-02-21T06:35:00;97414.16;;;3.32;80.24
80405;BME280;69733;48.744;9.176;2024-02-21T06:37:27;97408.88;;;3.32;79.97
80405;BME280;69733;48.744;9.176;2024-02-21T06:39:52;97419.41;;;3.32;79.92
80405;BME280;69733;48.744;9.176;2024-02-21T06:42:17;97430.22;;;3.37;80.03
80405;BME280;69733;48.744;9.176;2024-02-21T06:44:44;97437.13;;;3.38;79.68
80405;BME280;69733;48.744;9.176;2024-02-21T06:47:09;97421.84;;;3.42;79.62
80405;BME280;69733;48.744;9.176;2024-02-21T06:49:35;97424.78;;;3.47;79.76
80405;BME280;69733;48.744;9.176;2024-02-21T06:52:03;97417.38;;;3.50;79.76
80405;BME280;69733;48.744;9.176;2024-02-21T06:54:29;97409.78;;;3.56;79.59
80405;BME280;69733;48.744;9.176;2024-02-21T06:56:54;97407.50;;;3.61;79.49
80405;BME280;69733;48.744;9.176;2024-02-21T06:59:19;97403.19;;;3.68;79.07
80405;BME280;69733;48.744;9.176;2024-02-21T07:01:47;97406.59;;;3.76;78.90
80405;BME280;69733;48.744;9.176;2024-02-21T07:04:13;97402.94;;;3.85;78.84
80405;BME280;69733;48.744;9.176;2024-02-21T07:06:38;97404.72;;;3.93;78.52
80405;BME280;69733;48.744;9.176;2024-02-21T07:09:04;97401.88;;;4.03;78.62
80405;BME280;69733;48.744;9.176;2024-02-21T07:11:29;97397.53;;;4.18;78.02
80405;BME280;69733;48.744;9.176;2024-02-21T07:13:54;97388.53;;;4.35;77.67
80405;BME280;69733;48.744;9.176;2024-02-21T07:16:19;97382.97;;;4.53;77.46
80405;BME280;69733;48.744;9.176;2024-02-21T07:18:45;97387.06;;;4.78;76.81
80405;BME280;69733;48.744;9.176;2024-02-21T07:21:10;97387.94;;;5.08;76.74
80405;BME280;69733;48.744;9.176;2024-02-21T07:23:35;97379.59;;;5.33;75.72
80405;BME280;69733;48.744;9.176;2024-02-21T07:26:01;97376.31;;;5.61;75.42
80405;BME280;69733;48.744;9.176;2024-02-21T07:28:26;97379.97;;;5.89;75.35
80405;BME280;69733;48.744;9.176;2024-02-21T07:30:51;97380.63;;;6.27;74.61
80405;BME280;69733;48.744;9.176;2024-02-21T07:33:17;97375.91;;;6.65;74.07
80405;BME280;69733;48.744;9.176;2024-02-21T07:35:42;97368.09;;;7.06;73.68
80405;BME280;69733;48.744;9.176;2024-02-21T07:38:10;97363.66;;;7.40;72.83
80405;BME280;69733;48.744;9.176;2024-02-21T07:40:37;97358.81;;;7.85;72.65
80405;BME280;69733;48.744;9.176;2024-02-21T07:43:03;97367.50;;;8.13;72.26
80405;BME280;69733;48.744;9.176;2024-02-21T07:45:28;97359.69;;;8.46;72.12
80405;BME280;69733;48.744;9.176;2024-02-21T07:47:53;97357.22;;;8.58;71.90
80405;BME280;69733;48.744;9.176;2024-02-21T07:50:19;97351.13;;;8.64;72.51
80405;BME280;69733;48.744;9.176;2024-02-21T07:52:44;97339.06;;;8.48;73.56
80405;BME280;69733;48.744;9.176;2024-02-21T07:55:09;97332.34;;;8.59;73.69
80405;BME280;69733;48.744;9.176;2024-02-21T07:57:37;97323.19;;;8.68;73.76
80405;BME280;69733;48.744;9.176;2024-02-21T08:00:03;97324.59;;;8.77;73.92
80405;BME280;69733;48.744;9.176;2024-02-21T08:02:29;97326.66;;;8.88;74.14
80405;BME280;69733;48.744;9.176;2024-02-21T08:04:55;97326.88;;;8.99;74.13
80405;BME280;69733;48.744;9.176;2024-02-21T08:07:20;97322.97;;;9.09;73.93
80405;BME280;69733;48.744;9.176;2024-02-21T08:09:45;97318.47;;;9.03;74.37
80405;BME280;69733;48.744;9.176;2024-02-21T08:12:11;97316.41;;;9.11;74.76
80405;BME280;69733;48.744;9.176;2024-02-21T08:14:36;97315.38;;;9.19;74.71
80405;BME280;69733;48.744;9.176;2024-02-21T08:17:01;97308.66;;;9.23;74.76
80405;BME280;69733;48.744;9.176;2024-02-21T08:19:27;97314.34;;;9.26;74.81
80405;BME280;69733;48.744;9.176;2024-02-21T08:21:52;97313.53;;;9.32;74.80
80405;BME280;69733;48.744;9.176;2024-02-21T08:24:17;97315.38;;;9.38;74.96
80405;BME280;69733;48.744;9.176;2024-02-21T08:26:43;97313.09;;;9.35;75.22
80405;BME280;69733;48.744;9.176;2024-02-21T08:29:12;97324.72;;;9.47;74.97
80405;BME280;69733;48.744;9.176;2024-02-21T08:31:37;97326.31;;;9.62;75.06
80405;BME280;69733;48.744;9.176;2024-02-21T08:34:02;97320.34;;;9.79;74.65
80405;BME280;69733;48.744;9.176;2024-02-21T08:36:30;97315.78;;;9.93;74.55
80405;BME280;69733;48.744;9.176;2024-02-21T08:38:55;97308.78;;;10.05;74.38
80405;BME280;69733;48.744;9.176;2024-02-21T08:41:21;97306.09;;;10.12;74.42
80405;BME280;69733;48.744;9.176;2024-02-21T08:43:49;97300.56;;;10.20;74.36
80405;BME280;69733;48.744;9.176;2024-02-21T08:46:14;97292.56;;;10.20;74.67
80405;BME280;69733;48.744;9.176;2024-02-21T08:48:39;97285.38;;;10.20;74.74
80405;BME280;69733;48.744;9.176;2024-02-21T08:51:05;97291.56;;;10.08;75.36
80405;BME280;69733;48.744;9.176;2024-02-21T08:53:30;97290.75;;;10.07;75.43
80405;BME280;69733;48.744;9.176;2024-02-21T08:55:56;97294.72;;;9.98;75.65
80405;BME280;69733;48.744;9.176;2024-02-21T08:58:21;97288.97;;;10.01;75.77
80405;BME280;69733;48.744;9.176;2024-02-21T09:00:49;97285.91;;;9.97;75.79
80405;BME280;69733;48.744;9.176;2024-02-21T09:03:14;97282.25;;;9.92;76.01
80405;BME280;69733;48.744;9.176;2024-02-21T09:05:40;97281.66;;;9.90;76.17
80405;BME280;69733;48.744;9.176;2024-02-21T09:08:06;97272.47;;;9.86;76.26
80405;BME280;69733;48.744;9.176;2024-02-21T09:10:31;97270.03;;;9.84;76.24
80405;BME280;69733;48.744;9.176;2024-02-21T09:12:56;97263.63;;;9.92;75.86
80405;BME280;69733;48.744;9.176;2024-02-21T09:15:22;97262.84;;;9.91;75.92
80405;BME280;69733;48.744;9.176;2024-02-21T09:17:49;97257.50;;;9.98;75.83
80405;BME280;69733;48.744;9.176;2024-02-21T09:20:14;97259.09;;;10.06;75.44
80405;BME280;69733;48.744;9.176;2024-02-21T09:22:44;97253.72;;;10.12;75.34
80405;BME280;69733;48.744;9.176;2024-02-21T09:25:09;97259.41;;;10.22;75.06
80405;BME280;69733;48.744;9.176;2024-02-21T09:27:38;97247.31;;;10.26;74.72
80405;BME280;69733;48.744;9.176;2024-02-21T09:30:05;97240.69;;;10.35;74.50
80405;BME280;69733;48.744;9.176;2024-02-21T09:32:30;97245.28;;;10.53;74.14
80405;BME280;69733;48.744;9.176;2024-02-21T09:34:57;97243.03;;;10.75;73.40
80405;BME280;69733;48.744;9.176;2024-02-21T09:37:22;97240.63;;;10.73;73.41
80405;BME280;69733;48.744;9.176;2024-02-21T09:39:48;97242.78;;;10.83;73.12
80405;BME280;69733;48.744;9.176;2024-02-21T09:42:14;97238.94;;;10.97;72.78
80405;BME280;69733;48.744;9.176;2024-02-21T09:44:43;97229.88;;;11.23;72.21
80405;BME280;69733;48.744;9.176;2024-02-21T09:47:18;97232.47;;;11.29;71.93
80405;BME280;69733;48.744;9.176;2024-02-21T09:49:44;97225.97;;;11.43;71.55
80405;BME280;69733;48.744;9.176;2024-02-21T09:52:11;97218.38;;;11.59;71.31
80405;BME280;69733;48.744;9.176;2024-02-21T09:54:39;97225.19;;;11.73;71.05
80405;BME280;69733;48.744;9.176;2024-02-21T09:57:05;97224.31;;;11.79;71.20
80405;BME280;69733;48.744;9.176;2024-02-21T09:59:32;97221.88;;;11.77;70.98
80405;BME280;69733;48.744;9.176;2024-02-21T10:01:58;97223.72;;;11.77;70.99
80405;BME280;69733;48.744;9.176;2024-02-21T10:04:25;97213.09;;;11.88;70.77
80405;BME280;69733;48.744;9.176;2024-02-21T10:06:51;97213.31;;;11.87;70.78
80405;BME280;69733;48.744;9.176;2024-02-21T10:09:23;97216.78;;;11.87;70.83
80405;BME280;69733;48.744;9.176;2024-02-21T10:11:49;97211.47;;;11.87;70.71
80405;BME280;69733;48.744;9.176;2024-02-21T10:14:15;97201.84;;;11.86;70.74
80405;BME280;69733;48.744;9.176;2024-02-21T10:16:41;97192.91;;;11.81;70.77
80405;BME280;69733;48.744;9.176;2024-02-21T10:19:06;97194.53;;;11.64;71.22
80405;BME280;69733;48.744;9.176;2024-02-21T10:21:31;97187.44;;;11.58;71.07
80405;BME280;69733;48.744;9.176;2024-02-21T10:23:57;97187.00;;;11.61;70.82
80405;BME280;69733;48.744;9.176;2024-02-21T10:26:22;97180.03;;;11.60;70.61
80405;BME280;69733;48.744;9.176;2024-02-21T10:28:48;97175.25;;;11.50;70.54
80405;BME280;69733;48.744;9.176;2024-02-21T10:31:24;97169.09;;;11.49;70.45
80405;BME280;69733;48.744;9.176;2024-02-21T10:34:02;97172.22;;;11.46;70.16
80405;BME280;69733;48.744;9.176;2024-02-21T10:36:30;97167.91;;;11.45;69.81
80405;BME280;69733;48.744;9.176;2024-02-21T10:38:56;97163.84;;;11.43;69.67
80405;BME280;69733;48.744;9.176;2024-02-21T10:41:21;97168.38;;;11.42;69.54
80405;BME280;69733;48.744;9.176;2024-02-21T10:43:52;97167.19;;;11.38;69.37
80405;BME280;69733;48.744;9.176;2024-02-21T10:46:19;97168.16;;;11.44;68.88
80405;BME280;69733;48.744;9.176;2024-02-21T10:48:46;97157.56;;;11.37;69.02
80405;BME280;69733;48.744;9.176;2024-02-21T10:51:16;97154.69;;;11.39;68.08
80405;BME280;69733;48.744;9.176;2024-02-21T10:53:50;97140.31;;;11.40;68.17
80405;BME280;69733;48.744;9.176;2024-02-21T10:56:31;97140.53;;;11.38;68.00
80405;BME280;69733;48.744;9.176;2024-02-21T10:59:01;97131.06;;;11.42;67.56
80405;BME280;69733;48.744;9.176;2024-02-21T11:01:28;97128.25;;;11.37;67.37
80405;BME280;69733;48.744;9.176;2024-02-21T11:03:56;97130.53;;;11.34;66.99
80405;BME280;69733;48.744;9.176;2024-02-21T11:06:22;97121.41;;;11.30;67.11
80405;BME280;69733;48.744;9.176;2024-02-21T11:09:05;97121.88;;;11.38;66.61
80405;BME280;69733;48.744;9.176;2024-02-21T11:11:34;97121.31;;;11.36;66.21
80405;BME280;69733;48.744;9.176;2024-02-21T11:14:10;97114.03;;;11.43;65.78
80405;BME280;69733;48.744;9.176;2024-02-21T11:16:37;97096.22;;;11.44;65.61
80405;BME280;69733;48.744;9.176;2024-02-21T11:19:25;97098.63;;;11.45;65.35
80405;BME280;69733;48.744;9.176;2024-02-21T11:21:51;97090.53;;;11.52;64.90
80405;BME280;69733;48.744;9.176;2024-02-21T11:26:54;97082.81;;;11.62;64.10
80405;BME280;69733;48.744;9.176;2024-02-21T11:29:25;97077.13;;;11.59;64.04
80405;BME280;69733;48.744;9.176;2024-02-21T11:31:52;97063.38;;;11.62;63.35
80405;BME280;69733;48.744;9.176;2024-02-21T11:34:18;97066.03;;;11.62;63.40
80405;BME280;69733;48.744;9.176;2024-02-21T11:36:48;97055.78;;;11.59;63.19
80405;BME280;69733;48.744;9.176;2024-02-21T11:39:24;97050.59;;;11.64;62.96
80405;BME280;69733;48.744;9.176;2024-02-21T11:42:19;97054.19;;;11.69;62.63
80405;BME280;69733;48.744;9.176;2024-02-21T11:44:45;97051.78;;;11.68;62.33
80405;BME280;69733;48.744;9.176;2024-02-21T11:47:10;97046.84;;;11.71;62.08
80405;BME280;69733;48.744;9.176;2024-02-21T11:49:37;97046.72;;;11.78;61.74
80405;BME280;69733;48.744;9.176;2024-02-21T11:52:06;97040.94;;;11.81;61.55
80405;BME280;69733;48.744;9.176;2024-02-21T11:54:33;97032.13;;;11.80;61.21
80405;BME280;69733;48.744;9.176;2024-02-21T11:56:59;97024.13;;;11.80;60.93
80405;BME280;69733;48.744;9.176;2024-02-21T11:59:24;97021.91;;;11.77;60.91
80405;BME280;69733;48.744;9.176;2024-02-21T12:01:50;97015.75;;;11.77;60.58
80405;BME280;69733;48.744;9.176;2024-02-21T12:04:18;97011.94;;;11.73;60.23
80405;BME280;69733;48.744;9.176;2024-02-21T12:06:47;97007.19;;;11.75;60.08
80405;BME280;69733;48.744;9.176;2024-02-21T12:09:15;97000.84;;;11.76;60.03
80405;BME280;69733;48.744;9.176;2024-02-21T12:11:41;97006.50;;;11.79;59.46
80405;BME280;69733;48.744;9.176;2024-02-21T12:14:07;96999.31;;;11.80;59.35
80405;BME280;69733;48.744;9.176;2024-02-21T12:16:34;96992.47;;;11.84;58.96
80405;BME280;69733;48.744;9.176;2024-02-21T12:19:00;96984.81;;;11.87;58.96
80405;BME280;69733;48.744;9.176;2024-02-21T12:21:34;96980.66;;;11.91;58.65
80405;BME280;69733;48.744;9.176;2024-02-21T12:24:12;96968.13;;;11.92;58.41
80405;BME280;69733;48.744;9.176;2024-02-21T12:26:38;96975.91;;;11.93;58.17
80405;BME280;69733;48.744;9.176;2024-02-21T12:29:03;96968.69;;;11.94;57.86
80405;BME280;69733;48.744;9.176;2024-02-21T12:31:29;96956.53;;;11.98;57.72
80405;BME280;69733;48.744;9.176;2024-02-21T12:33:54;96955.50;;;11.99;57.63
80405;BME280;69733;48.744;9.176;2024-02-21T12:36:20;96945.88;;;11.98;57.76
80405;BME280;69733;48.744;9.176;2024-02-21T12:38:45;96936.69;;;11.94;57.47
80405;BME280;69733;48.744;9.176;2024-02-21T12:41:11;96939.16;;;11.95;57.00
80405;BME280;69733;48.744;9.176;2024-02-21T12:43:37;96934.16;;;11.99;56.73
80405;BME280;69733;48.744;9.176;2024-02-21T12:46:03;96931.50;;;11.99;56.47
80405;BME280;69733;48.744;9.176;2024-02-21T12:48:28;96929.16;;;12.03;56.38
80405;BME280;69733;48.744;9.176;2024-02-21T12:50:54;96912.34;;;12.02;56.08
80405;BME280;69733;48.744;9.176;2024-02-21T12:53:19;96917.81;;;12.07;55.95
80405;BME280;69733;48.744;9.176;2024-02-21T12:55:49;96902.16;;;12.11;55.58
80405;BME280;69733;48.744;9.176;2024-02-21T12:58:15;96907.69;;;12.09;55.67
80405;BME280;69733;48.744;9.176;2024-02-21T13:00:41;96899.47;;;12.11;55.25
80405;BME280;69733;48.744;9.176;2024-02-21T13:03:06;96903.31;;;12.15;55.34
80405;BME280;69733;48.744;9.176;2024-02-21T13:05:32;96884.28;;;12.11;55.02
80405;BME280;69733;48.744;9.176;2024-02-21T13:07:58;96874.66;;;12.10;54.83